Terminal Aerodrome Forecast
Issued by NWS Sioux Falls, SD

Home | Current Version | Previous Version | Graphics & Text | Print | Product List | Glossary Off
Versions: 1 2 3 4 5 6 7 8 9 10 11 12 13 14 15 16

000
FTUS43 KFSD 232320
TAFFSD
TAF
KFSD 232320Z 2400/2424 03007KT P6SM SKC
     FM240200 06006KT P6SM SKC
     FM240500 VRB03KT P6SM SKC
     FM241100 VRB03KT 5SM BR SKC
     FM241400 15008KT P6SM SKC
     FM242000 15011KT P6SM SKC=

USA.gov is the U.S. government's official web portal to all federal, state and local government web resources and services.